Burns Flat, Oklahoma
Current Conditions -  °F | °C
As of 7:53 AM on Saturday 25 Oct 2014 (Local Time) from KCSM Reporting Station
Clear Clear  
Wind Chill: 61°   Ceiling: Unl
Heat Index: 61°   Visibility: 10mi
Dew Point: 55°   Wind: 10mph
Humidity: 81%   Direction: 210°SSW
Pressure: 30.1"   Gusts: NA
Location:  35.35°N, 99.17°W
Report Text: KCSM 251253Z AUTO 21009KT 10SM CLR 16/13 A3010 RMK AO2 SLP176 T01610128
Loading
Personal Weather Stations






























Interactive Weather Map New forecast layout! Learn more

10-Day Weather Forecast

Advertisements
Track Severe Weather on mobile